createdAt,value
2023-02-22T00:01:18.759Z,72.89
2023-02-22T00:03:51.196Z,73.12
2023-02-22T00:06:20.979Z,73.11
2023-02-22T00:08:49.559Z,73.25
2023-02-22T00:11:17.216Z,73.44
2023-02-22T00:13:44.881Z,73.50
2023-02-22T00:16:21.144Z,73.64
2023-02-22T00:18:49.829Z,73.92
2023-02-22T00:21:19.206Z,74.15
2023-02-22T00:23:47.835Z,74.42
2023-02-22T00:26:18.394Z,74.77
2023-02-22T00:28:53.045Z,74.65
2023-02-22T00:31:21.194Z,74.62
2023-02-22T00:33:51.562Z,74.61
2023-02-22T00:36:19.120Z,74.73
2023-02-22T00:38:46.276Z,74.81
2023-02-22T00:41:13.547Z,74.94
2023-02-22T00:43:41.083Z,75.31
2023-02-22T00:46:08.710Z,75.31
2023-02-22T00:48:37.224Z,75.10
2023-02-22T00:51:05.611Z,74.99
2023-02-22T00:53:33.064Z,74.87
2023-02-22T00:56:00.313Z,75.11
2023-02-22T00:58:28.483Z,75.12
2023-02-22T01:00:56.154Z,75.45
2023-02-22T01:03:23.612Z,75.69
2023-02-22T01:05:56.601Z,75.59
2023-02-22T01:08:25.080Z,75.54
2023-02-22T01:10:52.658Z,75.64
2023-02-22T01:13:20.717Z,75.73
2023-02-22T01:15:47.954Z,75.99
2023-02-22T01:18:16.946Z,76.48
2023-02-22T01:20:47.608Z,76.59
2023-02-22T01:23:16.976Z,76.71
2023-02-22T01:25:45.868Z,76.57
2023-02-22T01:28:15.373Z,76.79
2023-02-22T01:30:45.816Z,76.78
2023-02-22T01:33:15.202Z,77.15
2023-02-22T01:35:42.967Z,77.44
2023-02-22T01:38:10.427Z,77.88
2023-02-22T01:40:41.573Z,78.04
2023-02-22T01:43:22.687Z,78.07
2023-02-22T01:46:14.880Z,78.26
2023-02-22T01:48:48.735Z,78.73
2023-02-22T01:51:17.821Z,79.38
2023-02-22T01:53:48.406Z,79.55
2023-02-22T01:56:16.277Z,79.67
2023-02-22T01:58:50.916Z,79.96
2023-02-22T02:01:20.218Z,80.65
2023-02-22T02:03:48.921Z,81.61
2023-02-22T02:06:19.307Z,83.17
2023-02-22T02:09:02.434Z,84.03
2023-02-22T02:11:30.200Z,85.22
2023-02-22T02:14:02.676Z,86.08
2023-02-22T02:16:40.938Z,87.46
2023-02-22T02:19:37.935Z,88.22
2023-02-22T02:22:11.673Z,88.68
2023-02-22T02:24:39.403Z,89.01
2023-02-22T02:27:22.626Z,88.45
2023-02-22T02:30:01.921Z,87.59
2023-02-22T02:32:48.262Z,87.90
2023-02-22T02:35:28.927Z,88.35
2023-02-22T02:38:02.386Z,88.86
2023-02-22T02:40:35.923Z,88.97
2023-02-22T02:43:26.114Z,89.45
2023-02-22T02:45:56.337Z,89.63
2023-02-22T02:48:26.046Z,89.45
2023-02-22T02:50:53.400Z,88.88
2023-02-22T02:53:22.196Z,88.78
2023-02-22T02:55:51.902Z,88.42
2023-02-22T02:58:22.024Z,88.50
2023-02-22T03:00:51.119Z,88.45
2023-02-22T03:03:56.874Z,88.51
2023-02-22T03:06:43.890Z,88.85
2023-02-22T03:09:34.070Z,89.31
2023-02-22T03:12:08.186Z,89.91
2023-02-22T03:14:41.810Z,90.16
2023-02-22T03:17:16.613Z,89.61
2023-02-22T03:19:49.085Z,88.54
2023-02-22T03:22:32.116Z,87.96
2023-02-22T03:25:01.620Z,87.82
2023-02-22T03:27:33.477Z,87.75
2023-02-22T03:30:05.370Z,87.51
2023-02-22T03:32:36.502Z,87.42
2023-02-22T03:35:07.424Z,86.95
2023-02-22T03:37:39.084Z,86.08
2023-02-22T03:40:14.582Z,85.90
2023-02-22T03:42:49.242Z,86.43
2023-02-22T03:45:17.526Z,86.81
2023-02-22T03:47:52.670Z,86.76
2023-02-22T03:50:22.405Z,86.51
2023-02-22T03:52:50.142Z,86.67
2023-02-22T03:55:23.948Z,87.03
2023-02-22T03:57:57.764Z,87.04
2023-02-22T04:00:29.297Z,86.70
2023-02-22T04:02:56.462Z,86.17
2023-02-22T04:05:24.752Z,85.82
2023-02-22T04:07:53.204Z,85.52
2023-02-22T04:10:20.978Z,85.61
2023-02-22T04:12:50.576Z,84.92
2023-02-22T04:15:22.853Z,84.50
2023-02-22T04:17:52.364Z,84.29
2023-02-22T04:20:20.011Z,84.04
2023-02-22T04:23:04.789Z,83.73
2023-02-22T04:25:32.539Z,83.95
2023-02-22T04:28:11.366Z,83.94
2023-02-22T04:30:58.814Z,83.72
2023-02-22T04:33:29.727Z,83.97
2023-02-22T04:35:57.387Z,83.91
2023-02-22T04:38:27.858Z,83.61
2023-02-22T04:40:57.279Z,83.66
2023-02-22T04:43:25.285Z,83.62
2023-02-22T04:45:54.382Z,83.49
2023-02-22T04:48:21.859Z,83.46
2023-02-22T04:50:50.731Z,82.95
2023-02-22T04:53:18.700Z,82.67
2023-02-22T04:55:46.157Z,82.77
2023-02-22T04:58:13.519Z,82.29
2023-02-22T05:00:41.384Z,81.66
2023-02-22T05:03:09.443Z,81.92
2023-02-22T05:05:38.031Z,81.65
2023-02-22T05:08:05.287Z,81.33
2023-02-22T05:10:38.266Z,81.49
2023-02-22T05:13:06.847Z,81.31
2023-02-22T05:15:34.305Z,81.00
2023-02-22T05:18:02.076Z,81.02
2023-02-22T05:20:31.334Z,81.14
2023-02-22T05:22:59.342Z,80.66
2023-02-22T05:25:26.815Z,80.88
2023-02-22T05:27:56.923Z,81.32
2023-02-22T05:30:30.362Z,81.82
2023-02-22T05:32:58.999Z,81.13
2023-02-22T05:35:27.220Z,80.42
2023-02-22T05:37:54.738Z,80.19
2023-02-22T05:40:23.522Z,79.57
2023-02-22T05:42:51.533Z,79.42
2023-02-22T05:45:21.331Z,78.99
2023-02-22T05:47:48.756Z,77.98
2023-02-22T05:50:17.455Z,77.09
2023-02-22T05:52:44.594Z,76.32
2023-02-22T05:55:13.587Z,74.61
2023-02-22T05:57:41.768Z,73.21
2023-02-22T06:00:10.812Z,72.11
2023-02-22T06:02:41.803Z,71.81
2023-02-22T06:05:09.355Z,70.95
2023-02-22T06:07:38.859Z,70.02
2023-02-22T06:10:06.205Z,69.74
2023-02-22T06:12:35.342Z,69.67
2023-02-22T06:15:03.385Z,69.58
2023-02-22T06:17:31.954Z,69.93
2023-02-22T06:19:59.520Z,70.11
2023-02-22T06:22:28.303Z,70.19
2023-02-22T06:24:56.781Z,70.81
2023-02-22T06:27:24.347Z,70.64
2023-02-22T06:29:51.818Z,70.53
2023-02-22T06:32:20.013Z,70.32
2023-02-22T06:34:50.296Z,70.17
2023-02-22T06:37:17.958Z,70.67
2023-02-22T06:39:46.031Z,70.91
2023-02-22T06:42:18.656Z,70.56
2023-02-22T06:44:46.778Z,70.21
2023-02-22T06:47:14.413Z,69.95
2023-02-22T06:49:42.414Z,70.08
2023-02-22T06:52:10.683Z,69.86
2023-02-22T06:54:41.076Z,70.95
2023-02-22T06:57:09.817Z,71.06
2023-02-22T06:59:37.253Z,70.06
2023-02-22T07:02:05.224Z,70.12
2023-02-22T07:04:36.102Z,70.16
2023-02-22T07:07:06.082Z,69.51
2023-02-22T07:09:33.851Z,69.82
2023-02-22T07:12:01.196Z,70.21
2023-02-22T07:14:29.065Z,70.14
2023-02-22T07:16:56.522Z,70.48
2023-02-22T07:19:24.799Z,69.61
2023-02-22T07:21:58.741Z,69.08
2023-02-22T07:24:28.007Z,68.38
2023-02-22T07:26:56.911Z,67.73
2023-02-22T07:29:24.686Z,67.33
2023-02-22T07:31:53.083Z,67.60
2023-02-22T07:34:20.929Z,67.89
2023-02-22T07:36:48.570Z,68.34
2023-02-22T07:39:16.028Z,68.53
2023-02-22T07:41:43.585Z,69.11
2023-02-22T07:44:24.970Z,69.28
2023-02-22T07:46:52.529Z,69.94
2023-02-22T07:49:21.735Z,70.45
2023-02-22T07:51:50.522Z,70.91
2023-02-22T07:54:18.076Z,71.34
2023-02-22T07:56:47.301Z,71.39
2023-02-22T07:59:15.341Z,71.68
2023-02-22T08:01:42.591Z,72.01
2023-02-22T08:04:10.460Z,72.15
2023-02-22T08:06:38.313Z,72.06
2023-02-22T08:09:05.692Z,72.06
2023-02-22T08:11:34.876Z,72.33
2023-02-22T08:14:02.132Z,73.56
2023-02-22T08:16:30.406Z,73.65
2023-02-22T08:18:57.968Z,74.02
2023-02-22T08:21:25.834Z,73.96
2023-02-22T08:23:56.366Z,74.12
2023-02-22T08:26:25.659Z,74.85
2023-02-22T08:28:53.029Z,73.60
2023-02-22T08:31:21.130Z,73.11
2023-02-22T08:33:49.678Z,73.22
2023-02-22T08:36:18.150Z,72.16
2023-02-22T08:38:46.764Z,71.34
2023-02-22T08:41:14.854Z,71.44
2023-02-22T08:43:43.799Z,71.58
2023-02-22T08:46:11.318Z,72.06
2023-02-22T08:48:39.938Z,72.61
2023-02-22T08:51:09.646Z,72.24
2023-02-22T08:53:38.339Z,70.86
2023-02-22T08:56:06.364Z,69.12
2023-02-22T08:58:35.064Z,68.67
2023-02-22T09:01:05.312Z,68.19
2023-02-22T09:03:32.802Z,67.56
2023-02-22T09:06:00.476Z,67.13
2023-02-22T09:08:30.443Z,67.66
2023-02-22T09:10:57.900Z,66.86
2023-02-22T09:13:27.307Z,66.16
2023-02-22T09:15:55.173Z,66.57
2023-02-22T09:18:22.628Z,67.03
2023-02-22T09:20:51.853Z,67.70
2023-02-22T09:23:21.677Z,67.22
2023-02-22T09:25:50.029Z,66.28
2023-02-22T09:28:18.578Z,64.44
2023-02-22T09:30:47.628Z,63.95
2023-02-22T09:33:16.359Z,63.60
2023-02-22T09:35:47.317Z,62.97
2023-02-22T09:38:22.452Z,63.25
2023-02-22T09:40:51.650Z,63.45
2023-02-22T09:43:30.904Z,63.45
2023-02-22T09:46:18.788Z,63.07
2023-02-22T09:48:59.207Z,62.94
2023-02-22T09:51:35.347Z,63.36
2023-02-22T09:54:04.563Z,64.79
2023-02-22T09:56:33.747Z,65.17
2023-02-22T09:59:03.692Z,64.68
2023-02-22T10:01:38.729Z,65.25
2023-02-22T10:04:18.312Z,65.50
2023-02-22T10:07:15.586Z,64.08
2023-02-22T10:09:48.861Z,64.21
2023-02-22T10:12:30.361Z,64.09
2023-02-22T10:15:11.559Z,64.17
2023-02-22T10:18:16.683Z,64.50
2023-02-22T10:21:07.383Z,64.46
2023-02-22T10:23:45.966Z,63.59
2023-02-22T10:26:26.073Z,63.82
2023-02-22T10:29:10.102Z,63.03
2023-02-22T10:31:41.024Z,62.70
2023-02-22T10:34:18.530Z,62.17
2023-02-22T10:36:46.809Z,62.60
2023-02-22T10:39:32.322Z,62.96
2023-02-22T10:42:05.638Z,63.31
2023-02-22T10:44:35.092Z,63.70
2023-02-22T10:47:12.279Z,64.64
2023-02-22T10:49:46.514Z,64.20
2023-02-22T10:52:29.102Z,63.53
2023-02-22T10:55:13.692Z,64.40
2023-02-22T10:57:44.011Z,64.51
2023-02-22T11:00:25.941Z,63.63
2023-02-22T11:02:54.262Z,63.39
2023-02-22T11:05:36.304Z,62.82
2023-02-22T11:08:18.666Z,62.51
2023-02-22T11:10:54.908Z,61.93
2023-02-22T11:13:30.638Z,61.68
2023-02-22T11:15:59.976Z,62.29
2023-02-22T11:18:28.762Z,62.87
2023-02-22T11:21:08.149Z,62.89
2023-02-22T11:23:36.414Z,63.75
2023-02-22T11:26:15.097Z,63.79
2023-02-22T11:28:48.770Z,62.26
2023-02-22T11:31:24.764Z,61.57
2023-02-22T11:33:53.337Z,62.33
2023-02-22T11:36:50.904Z,62.71
2023-02-22T11:39:34.154Z,62.71
2023-02-22T11:42:24.117Z,62.96
2023-02-22T11:45:12.461Z,62.12
2023-02-22T11:47:55.117Z,62.38
2023-02-22T11:50:29.253Z,61.67
2023-02-22T11:53:21.779Z,61.30
2023-02-22T11:56:32.114Z,62.47
2023-02-22T11:59:36.307Z,61.84
2023-02-22T12:02:27.541Z,62.04
2023-02-22T12:05:07.909Z,61.99
2023-02-22T12:07:51.067Z,62.62
2023-02-22T12:10:35.169Z,62.75
2023-02-22T12:13:23.502Z,62.65
2023-02-22T12:16:03.192Z,63.12
2023-02-22T12:18:35.001Z,62.60
2023-02-22T12:21:16.402Z,62.54
2023-02-22T12:24:00.507Z,62.30
2023-02-22T12:26:34.644Z,63.46
2023-02-22T12:29:07.035Z,63.16
2023-02-22T12:31:36.742Z,63.53
2023-02-22T12:34:29.347Z,63.91
2023-02-22T12:36:57.050Z,64.13
2023-02-22T12:39:28.108Z,63.95
2023-02-22T12:41:56.112Z,64.49
2023-02-22T12:44:28.968Z,65.07
2023-02-22T12:46:59.566Z,64.52
2023-02-22T12:49:41.255Z,64.88
2023-02-22T12:52:44.150Z,65.36
2023-02-22T12:55:18.090Z,65.83
2023-02-22T12:58:14.397Z,66.19
2023-02-22T13:00:43.892Z,66.26
2023-02-22T13:03:30.913Z,66.11
2023-02-22T13:06:08.248Z,65.36
2023-02-22T13:09:26.440Z,65.23
2023-02-22T13:12:21.146Z,66.13
2023-02-22T13:15:02.113Z,66.17
2023-02-22T13:17:55.064Z,65.95
2023-02-22T13:20:41.780Z,65.62
2023-02-22T13:23:23.256Z,65.42
2023-02-22T13:25:57.823Z,65.30
2023-02-22T13:28:47.178Z,64.57
2023-02-22T13:31:28.155Z,64.30
2023-02-22T13:34:21.495Z,63.65
2023-02-22T13:37:08.167Z,63.23
2023-02-22T13:39:59.825Z,63.06
2023-02-22T13:42:57.789Z,63.50
2023-02-22T13:46:03.714Z,62.98
2023-02-22T13:48:42.002Z,63.39
2023-02-22T13:51:13.147Z,62.74
2023-02-22T13:53:58.479Z,62.77
2023-02-22T13:56:26.483Z,63.23
2023-02-22T13:58:55.659Z,63.04
2023-02-22T14:01:37.319Z,62.62
2023-02-22T14:04:27.219Z,61.85
2023-02-22T14:07:19.250Z,61.27
2023-02-22T14:09:50.818Z,61.69
2023-02-22T14:12:30.613Z,61.34
2023-02-22T14:15:28.230Z,61.03
2023-02-22T14:17:56.706Z,60.81
2023-02-22T14:20:32.038Z,61.19
2023-02-22T14:23:28.781Z,61.34
2023-02-22T14:25:59.521Z,61.70
2023-02-22T14:28:38.957Z,61.92
2023-02-22T14:31:17.449Z,61.80
2023-02-22T14:33:53.523Z,62.17
2023-02-22T14:36:42.350Z,62.66
2023-02-22T14:39:43.581Z,63.02
2023-02-22T14:42:36.548Z,62.09
2023-02-22T14:45:12.751Z,61.90
2023-02-22T14:48:00.791Z,62.23
2023-02-22T14:50:36.040Z,62.02
2023-02-22T14:53:12.753Z,62.36
2023-02-22T14:55:43.395Z,61.90
2023-02-22T14:58:12.849Z,62.44
2023-02-22T15:00:46.127Z,62.33
2023-02-22T15:03:36.961Z,62.86
2023-02-22T15:06:16.742Z,62.04
2023-02-22T15:08:49.561Z,61.46
2023-02-22T15:11:30.974Z,61.67
2023-02-22T15:14:00.148Z,61.99
2023-02-22T15:16:31.979Z,61.61
2023-02-22T15:19:03.555Z,61.95
2023-02-22T15:21:31.339Z,62.22
2023-02-22T15:24:07.460Z,62.84
2023-02-22T15:26:52.006Z,62.14
2023-02-22T15:29:44.280Z,62.37
2023-02-22T15:32:29.670Z,63.09
2023-02-22T15:35:19.152Z,63.00
2023-02-22T15:37:47.412Z,64.03
2023-02-22T15:40:20.470Z,63.83
2023-02-22T15:42:58.026Z,64.13
2023-02-22T15:45:27.810Z,64.35
2023-02-22T15:47:58.330Z,64.89
2023-02-22T15:50:33.713Z,64.83
2023-02-22T15:53:23.739Z,64.90
2023-02-22T15:55:59.513Z,64.59
2023-02-22T15:58:31.275Z,65.16
2023-02-22T16:01:00.128Z,64.50
2023-02-22T16:03:32.940Z,64.24
2023-02-22T16:06:00.409Z,64.25
2023-02-22T16:08:54.776Z,63.60
2023-02-22T16:11:35.566Z,63.10
2023-02-22T16:14:06.180Z,62.87
2023-02-22T16:16:35.409Z,62.71
2023-02-22T16:19:21.834Z,62.53
2023-02-22T16:21:50.693Z,62.72
2023-02-22T16:24:27.698Z,62.16
2023-02-22T16:27:13.047Z,62.58
2023-02-22T16:29:41.315Z,63.07
2023-02-22T16:32:09.317Z,63.04
2023-02-22T16:34:39.847Z,63.38
2023-02-22T16:37:21.722Z,64.13
2023-02-22T16:39:51.526Z,64.45
2023-02-22T16:42:23.776Z,64.51
2023-02-22T16:44:51.857Z,64.92
2023-02-22T16:47:21.390Z,64.16
2023-02-22T16:49:52.434Z,64.16
2023-02-22T16:52:24.685Z,64.14
2023-02-22T16:54:53.454Z,63.82
2023-02-22T16:57:21.992Z,63.45
2023-02-22T16:59:51.774Z,62.97
2023-02-22T17:02:20.663Z,62.86
2023-02-22T17:04:51.601Z,63.06
2023-02-22T17:07:24.461Z,63.36
2023-02-22T17:09:58.000Z,63.40
2023-02-22T17:12:26.744Z,63.30
2023-02-22T17:14:54.146Z,63.94
2023-02-22T17:17:27.137Z,64.32
2023-02-22T17:19:57.820Z,64.78
2023-02-22T17:22:28.549Z,64.64
2023-02-22T17:25:00.575Z,64.76
2023-02-22T17:27:28.694Z,65.33
2023-02-22T17:29:57.890Z,64.90
2023-02-22T17:32:26.179Z,65.26
2023-02-22T17:34:58.428Z,65.41
2023-02-22T17:37:26.303Z,65.94
2023-02-22T17:39:56.120Z,65.79
2023-02-22T17:42:24.078Z,66.01
2023-02-22T17:44:52.372Z,66.18
2023-02-22T17:47:23.606Z,66.04
2023-02-22T17:49:52.677Z,66.23
2023-02-22T17:52:20.163Z,66.41
2023-02-22T17:54:51.280Z,66.38
2023-02-22T17:57:20.408Z,66.28
2023-02-22T17:59:48.157Z,66.23
2023-02-22T18:02:16.522Z,65.66
2023-02-22T18:04:44.279Z,65.40
2023-02-22T18:07:14.070Z,64.57
2023-02-22T18:09:44.062Z,64.62
2023-02-22T18:12:12.715Z,64.35
2023-02-22T18:14:40.402Z,64.35
2023-02-22T18:17:11.417Z,64.14
2023-02-22T18:19:41.250Z,64.30
2023-02-22T18:22:08.734Z,63.83
2023-02-22T18:24:36.914Z,63.87
2023-02-22T18:27:08.552Z,64.24
2023-02-22T18:29:42.627Z,64.61
2023-02-22T18:32:15.240Z,64.72
2023-02-22T18:34:48.597Z,64.96
2023-02-22T18:37:20.268Z,65.23
2023-02-22T18:39:59.594Z,65.54
2023-02-22T18:42:27.556Z,66.44
2023-02-22T18:45:00.335Z,66.36
2023-02-22T18:47:29.124Z,65.73
2023-02-22T18:49:57.099Z,65.47
2023-02-22T18:52:24.864Z,65.87
2023-02-22T18:54:55.284Z,65.75
2023-02-22T18:57:24.387Z,65.93
2023-02-22T18:59:54.822Z,65.74
2023-02-22T19:02:22.645Z,65.67
2023-02-22T19:04:50.542Z,65.68
2023-02-22T19:07:19.913Z,65.25
2023-02-22T19:09:51.463Z,65.60
2023-02-22T19:12:20.187Z,65.67
2023-02-22T19:14:48.460Z,65.98
2023-02-22T19:17:21.358Z,65.81
2023-02-22T19:19:48.918Z,65.52
2023-02-22T19:22:17.036Z,65.45
2023-02-22T19:24:46.582Z,65.35
2023-02-22T19:27:18.226Z,64.91
2023-02-22T19:29:49.807Z,65.20
2023-02-22T19:32:17.866Z,65.33
2023-02-22T19:34:45.828Z,65.07
2023-02-22T19:37:15.002Z,64.85
2023-02-22T19:39:42.528Z,64.63
2023-02-22T19:42:10.452Z,64.52
2023-02-22T19:44:38.929Z,64.82
2023-02-22T19:47:09.766Z,64.79
2023-02-22T19:49:41.330Z,64.52
2023-02-22T19:52:08.682Z,64.52
2023-02-22T19:54:37.562Z,64.33
2023-02-22T19:57:05.949Z,64.18
2023-02-22T19:59:33.676Z,64.26
2023-02-22T20:02:01.640Z,64.03
2023-02-22T20:04:32.765Z,64.13
2023-02-22T20:07:01.708Z,64.50
2023-02-22T20:09:30.035Z,64.61
2023-02-22T20:11:58.062Z,64.42
2023-02-22T20:14:27.981Z,64.33
2023-02-22T20:16:57.379Z,64.35
2023-02-22T20:19:26.782Z,64.32
2023-02-22T20:21:57.707Z,64.18
2023-02-22T20:24:25.376Z,64.07
2023-02-22T20:26:55.503Z,64.25
2023-02-22T20:29:29.002Z,64.30
2023-02-22T20:31:57.979Z,64.14
2023-02-22T20:34:26.776Z,64.02
2023-02-22T20:36:54.249Z,64.26
2023-02-22T20:39:21.485Z,63.86
2023-02-22T20:41:52.230Z,63.79
2023-02-22T20:44:20.183Z,63.76
2023-02-22T20:46:49.896Z,63.75
2023-02-22T20:49:19.088Z,63.65
2023-02-22T20:51:48.105Z,63.92
2023-02-22T20:54:16.886Z,63.64
2023-02-22T20:56:45.175Z,63.24
2023-02-22T20:59:17.076Z,63.33
2023-02-22T21:01:44.574Z,62.85
2023-02-22T21:04:13.125Z,62.79
2023-02-22T21:06:40.770Z,63.00
2023-02-22T21:09:13.452Z,63.05
2023-02-22T21:11:40.655Z,63.16
2023-02-22T21:14:11.278Z,63.39
2023-02-22T21:16:39.462Z,63.37
2023-02-22T21:19:08.155Z,63.36
2023-02-22T21:21:36.327Z,63.35
2023-02-22T21:24:07.557Z,63.26
2023-02-22T21:26:34.638Z,63.57
2023-02-22T21:29:05.001Z,63.45
2023-02-22T21:31:33.472Z,63.69
2023-02-22T21:34:01.168Z,64.00
2023-02-22T21:36:28.730Z,63.77
2023-02-22T21:38:58.544Z,63.73
2023-02-22T21:41:27.809Z,63.50
2023-02-22T21:43:57.042Z,63.58
2023-02-22T21:46:25.159Z,64.13
2023-02-22T21:48:52.670Z,64.07
2023-02-22T21:51:25.891Z,63.94
2023-02-22T21:53:53.939Z,64.19
2023-02-22T21:56:23.848Z,64.13
2023-02-22T21:58:58.564Z,64.21
2023-02-22T22:01:46.687Z,64.19
2023-02-22T22:04:18.589Z,64.49
2023-02-22T22:06:47.793Z,64.50
2023-02-22T22:09:17.905Z,65.15
2023-02-22T22:11:51.744Z,65.23
2023-02-22T22:14:23.767Z,65.52
2023-02-22T22:16:53.742Z,65.92
2023-02-22T22:19:22.460Z,65.93
2023-02-22T22:21:53.093Z,66.61
2023-02-22T22:24:21.065Z,66.45
2023-02-22T22:26:54.104Z,66.48
2023-02-22T22:29:28.877Z,66.30
2023-02-22T22:31:56.680Z,66.01
2023-02-22T22:34:24.484Z,65.98
2023-02-22T22:36:53.494Z,66.05
2023-02-22T22:39:21.674Z,65.83
2023-02-22T22:41:51.073Z,65.63
2023-02-22T22:44:21.834Z,65.68
2023-02-22T22:46:53.001Z,65.86
2023-02-22T22:49:20.500Z,65.80
2023-02-22T22:51:48.439Z,65.56
2023-02-22T22:54:20.131Z,65.57
2023-02-22T22:56:48.105Z,65.97
2023-02-22T22:59:15.722Z,66.30
2023-02-22T23:01:44.149Z,66.55
2023-02-22T23:04:16.685Z,66.80
2023-02-22T23:06:46.305Z,67.09
2023-02-22T23:09:14.703Z,66.89
2023-02-22T23:11:44.032Z,67.24
2023-02-22T23:14:25.533Z,67.15
2023-02-22T23:17:02.685Z,66.93
2023-02-22T23:19:35.778Z,67.56
2023-02-22T23:22:15.515Z,67.24
2023-02-22T23:24:47.269Z,66.89
2023-02-22T23:27:14.723Z,66.22
2023-02-22T23:29:42.515Z,65.66
2023-02-22T23:32:10.667Z,66.19
2023-02-22T23:34:40.956Z,66.20
2023-02-22T23:37:09.946Z,65.77
2023-02-22T23:39:38.153Z,65.72
2023-02-22T23:42:08.382Z,65.70
2023-02-22T23:44:36.657Z,65.84
2023-02-22T23:47:04.210Z,65.94
2023-02-22T23:49:35.507Z,65.88
2023-02-22T23:52:04.553Z,66.44
2023-02-22T23:54:36.010Z,66.66
2023-02-22T23:57:04.596Z,66.29
2023-02-22T23:59:32.657Z,66.55
